Time;durP1;ratioP1;P1;durP2;ratioP2;P2;SDS_P1;SDS_P2;PMS_P1;PMS_P2;Temp;Humidity;BMP_temperature;BMP_pressure;BME280_temperature;BME280_humidity;BME280_pressure;Samples;Min_cycle;Max_cycle;Signal;HPM_P1;HPM_P2
2021/05/27 00:00:07;;;;;;;7.35;3.50;;;7.90;99.90;;;;;;5046773;28;20138;-67
2021/05/27 00:02:34;;;;;;;6.93;3.63;;;7.90;99.90;;;;;;5046795;28;20048;-67
2021/05/27 00:05:01;;;;;;;5.47;3.10;;;7.80;99.90;;;;;;5052577;28;20044;-68
2021/05/27 00:07:28;;;;;;;7.10;3.35;;;7.70;99.90;;;;;;5062262;28;20053;-68
2021/05/27 00:09:54;;;;;;;6.43;3.67;;;7.70;99.90;;;;;;5051396;28;20087;-67
2021/05/27 00:12:21;;;;;;;7.25;3.70;;;7.70;99.90;;;;;;5051335;28;20056;-67
2021/05/27 00:14:49;;;;;;;7.90;3.90;;;7.60;99.90;;;;;;5045783;28;20056;-67
2021/05/27 00:17:16;;;;;;;8.10;3.70;;;7.60;99.90;;;;;;5044508;28;20044;-68
2021/05/27 00:19:43;;;;;;;9.20;3.97;;;7.50;99.90;;;;;;5048195;28;20417;-67
2021/05/27 00:22:11;;;;;;;8.98;3.90;;;7.50;99.90;;;;;;5047630;28;20432;-67
2021/05/27 00:24:37;;;;;;;10.30;4.30;;;7.50;99.90;;;;;;5046819;28;20048;-67
2021/05/27 00:27:05;;;;;;;9.18;4.30;;;7.50;99.90;;;;;;5046283;28;20166;-67
2021/05/27 00:29:32;;;;;;;10.43;4.45;;;7.40;99.90;;;;;;5048284;28;20067;-67
2021/05/27 00:31:59;;;;;;;8.13;4.05;;;7.40;99.90;;;;;;5040169;28;20051;-67
2021/05/27 00:34:26;;;;;;;10.07;4.57;;;7.40;99.90;;;;;;5043982;28;20056;-67
2021/05/27 00:36:53;;;;;;;10.60;4.50;;;7.30;99.90;;;;;;5043477;28;20049;-67
2021/05/27 00:39:20;;;;;;;8.27;4.00;;;7.40;99.90;;;;;;5047625;28;20056;-67
2021/05/27 00:41:47;;;;;;;8.77;3.95;;;7.40;99.90;;;;;;5044547;28;20040;-67
2021/05/27 00:44:21;;;;;;;7.82;3.63;;;7.40;99.90;;;;;;5042961;28;20049;-67
2021/05/27 00:46:48;;;;;;;6.70;3.30;;;7.30;99.90;;;;;;5046073;28;20425;-67
2021/05/27 00:49:14;;;;;;;6.97;3.10;;;7.40;99.90;;;;;;5044528;28;20052;-67
2021/05/27 00:51:44;;;;;;;7.85;3.40;;;7.40;99.90;;;;;;5045983;28;20060;-66
2021/05/27 00:54:11;;;;;;;8.10;3.22;;;7.30;99.90;;;;;;5050698;28;20048;-67
2021/05/27 00:56:39;;;;;;;7.18;3.20;;;7.30;99.90;;;;;;5048053;28;20053;-67
2021/05/27 00:59:06;;;;;;;6.60;2.95;;;7.50;99.90;;;;;;5046304;28;20052;-67
2021/05/27 01:01:33;;;;;;;6.53;3.42;;;7.50;99.90;;;;;;5044450;28;20056;-67
2021/05/27 01:03:59;;;;;;;5.25;3.10;;;7.50;99.90;;;;;;5044636;28;20048;-67
2021/05/27 01:06:26;;;;;;;9.40;3.53;;;7.50;99.90;;;;;;5045878;28;20788;-67
2021/05/27 01:08:55;;;;;;;6.53;3.30;;;7.60;99.90;;;;;;5046587;28;20059;-67
2021/05/27 01:11:22;;;;;;;7.85;3.65;;;7.80;99.90;;;;;;5047127;28;20048;-67
2021/05/27 01:13:49;;;;;;;7.57;4.00;;;7.90;99.90;;;;;;5044885;28;20066;-67
2021/05/27 01:16:17;;;;;;;8.82;3.90;;;7.90;99.90;;;;;;5043625;28;20052;-67
2021/05/27 01:18:44;;;;;;;8.32;4.43;;;7.90;99.90;;;;;;5042099;28;21049;-67
2021/05/27 01:21:11;;;;;;;9.35;4.32;;;7.80;99.90;;;;;;5045562;28;20074;-67
2021/05/27 01:23:40;;;;;;;8.55;4.80;;;7.70;99.90;;;;;;5044838;28;20048;-67
2021/05/27 01:26:09;;;;;;;10.77;4.40;;;7.70;99.90;;;;;;5042653;28;20060;-67
2021/05/27 01:28:36;;;;;;;8.63;4.78;;;7.60;99.90;;;;;;5043447;28;20443;-67
2021/05/27 01:31:04;;;;;;;8.90;4.82;;;7.50;99.90;;;;;;5045793;28;20063;-67
2021/05/27 01:33:31;;;;;;;11.18;4.80;;;7.40;99.90;;;;;;5045030;28;20493;-67
2021/05/27 01:35:59;;;;;;;10.30;5.45;;;7.40;99.90;;;;;;5045466;28;20055;-67
2021/05/27 01:38:28;;;;;;;8.95;4.88;;;7.30;99.90;;;;;;5043829;28;20047;-67
2021/05/27 01:40:57;;;;;;;9.77;5.55;;;7.30;99.90;;;;;;5046375;28;20181;-67
2021/05/27 01:43:24;;;;;;;12.63;5.35;;;7.20;99.90;;;;;;5043106;28;20060;-67
2021/05/27 01:45:51;;;;;;;9.68;4.80;;;7.20;99.90;;;;;;5043891;28;20127;-66
2021/05/27 01:48:18;;;;;;;9.32;4.97;;;7.20;99.90;;;;;;5046149;28;20520;-66
2021/05/27 01:50:46;;;;;;;10.63;5.38;;;7.20;99.90;;;;;;5043515;28;20059;-66
2021/05/27 01:53:13;;;;;;;12.52;5.75;;;7.30;99.90;;;;;;5047799;28;20413;-67
2021/05/27 01:55:41;;;;;;;12.35;6.10;;;7.20;99.90;;;;;;5048243;28;20060;-67
2021/05/27 01:58:09;;;;;;;10.23;5.78;;;7.30;99.90;;;;;;5043229;28;20099;-67
2021/05/27 02:00:36;;;;;;;14.48;7.45;;;7.20;99.90;;;;;;5046616;28;20126;-67
2021/05/27 02:03:03;;;;;;;11.65;6.53;;;7.10;99.90;;;;;;5042987;28;20048;-66
2021/05/27 02:05:29;;;;;;;15.15;9.05;;;7.10;99.90;;;;;;5043678;28;20063;-66
2021/05/27 02:07:56;;;;;;;15.60;9.27;;;7.30;99.90;;;;;;5043915;28;20044;-66
2021/05/27 02:10:22;;;;;;;14.63;9.05;;;7.30;99.90;;;;;;5045005;28;20054;-66
2021/05/27 02:12:49;;;;;;;15.48;9.75;;;7.30;99.90;;;;;;5045987;28;20049;-67
2021/05/27 02:15:17;;;;;;;16.42;10.10;;;7.30;99.90;;;;;;5042923;28;20048;-66
2021/05/27 02:17:44;;;;;;;21.65;9.38;;;7.20;99.90;;;;;;5043695;28;20074;-66
2021/05/27 02:20:11;;;;;;;17.33;8.73;;;7.20;99.90;;;;;;5045000;28;20048;-66
2021/05/27 02:22:38;;;;;;;14.43;7.60;;;7.20;99.90;;;;;;5041920;28;20060;-66
2021/05/27 02:25:05;;;;;;;17.45;8.43;;;7.10;99.90;;;;;;5044927;28;20048;-67
2021/05/27 02:27:33;;;;;;;14.93;8.27;;;7.00;99.90;;;;;;5043411;28;20056;-66
2021/05/27 02:30:00;;;;;;;15.43;8.07;;;7.00;99.90;;;;;;5042034;28;20512;-66
2021/05/27 02:32:27;;;;;;;14.65;8.25;;;7.00;99.90;;;;;;5042698;28;20105;-67
2021/05/27 02:34:54;;;;;;;16.90;8.18;;;6.90;99.90;;;;;;5044014;28;20512;-66
2021/05/27 02:37:20;;;;;;;15.98;8.43;;;7.00;99.90;;;;;;5045609;28;20358;-66
2021/05/27 02:39:47;;;;;;;15.90;8.75;;;7.00;99.90;;;;;;5045367;28;21388;-66
2021/05/27 02:42:13;;;;;;;16.58;8.38;;;7.00;99.90;;;;;;5044283;28;20566;-66
2021/05/27 02:44:40;;;;;;;17.00;8.60;;;7.00;99.90;;;;;;5046453;28;20432;-66
2021/05/27 02:47:07;;;;;;;17.60;8.90;;;7.00;99.90;;;;;;5044471;28;20052;-66
2021/05/27 02:49:34;;;;;;;20.15;9.18;;;7.00;99.90;;;;;;5044872;28;20052;-66
2021/05/27 02:52:01;;;;;;;20.15;10.88;;;7.00;99.90;;;;;;5043786;28;20040;-66
2021/05/27 02:54:30;;;;;;;18.10;11.30;;;7.10;99.90;;;;;;5041348;28;20056;-66
2021/05/27 02:56:59;;;;;;;21.33;11.80;;;7.10;99.90;;;;;;5044421;28;20048;-66
2021/05/27 02:59:26;;;;;;;22.42;12.02;;;7.10;99.90;;;;;;5043879;28;20950;-67
2021/05/27 03:01:53;;;;;;;18.63;11.60;;;7.20;99.90;;;;;;5045660;28;20431;-66
2021/05/27 03:04:20;;;;;;;20.33;12.60;;;7.20;99.90;;;;;;5043311;28;20093;-66
2021/05/27 03:06:48;;;;;;;21.58;12.52;;;7.10;99.90;;;;;;5046920;28;20048;-67
2021/05/27 03:09:14;;;;;;;20.17;11.20;;;7.20;99.90;;;;;;5038732;28;20060;-66
2021/05/27 03:11:41;;;;;;;20.85;11.13;;;7.20;99.90;;;;;;5045421;28;20051;-66
2021/05/27 03:14:08;;;;;;;19.85;11.15;;;7.10;99.90;;;;;;5048075;28;20475;-66
2021/05/27 03:16:34;;;;;;;22.08;10.88;;;7.10;99.90;;;;;;5046355;28;20056;-66
2021/05/27 03:19:01;;;;;;;21.83;11.55;;;7.10;99.90;;;;;;5039342;28;20480;-66
2021/05/27 03:21:27;;;;;;;17.92;10.98;;;7.10;99.90;;;;;;5040804;28;20060;-66
2021/05/27 03:23:55;;;;;;;21.83;12.40;;;7.20;99.90;;;;;;5041422;28;20048;-66
2021/05/27 03:26:22;;;;;;;23.33;13.23;;;7.20;99.90;;;;;;5041789;28;20424;-66
2021/05/27 03:28:48;;;;;;;22.75;13.20;;;7.30;99.90;;;;;;5041195;28;21544;-66
2021/05/27 03:31:15;;;;;;;24.35;12.88;;;7.40;99.90;;;;;;5044814;28;20044;-66
2021/05/27 03:33:41;;;;;;;21.08;13.93;;;7.60;99.90;;;;;;5043667;28;20056;-66
2021/05/27 03:36:08;;;;;;;20.85;12.65;;;7.60;99.90;;;;;;5047366;28;20467;-67
2021/05/27 03:38:34;;;;;;;20.88;13.48;;;7.60;99.90;;;;;;5048155;28;20101;-66
2021/05/27 03:41:02;;;;;;;21.77;12.75;;;7.50;99.90;;;;;;5046614;28;20588;-66
2021/05/27 03:43:28;;;;;;;24.00;13.35;;;7.60;99.90;;;;;;5050748;28;20056;-67
2021/05/27 03:45:55;;;;;;;22.50;13.30;;;7.60;99.90;;;;;;5049860;28;20048;-67
2021/05/27 03:48:21;;;;;;;21.80;13.48;;;7.50;99.90;;;;;;5047887;28;20047;-66
2021/05/27 03:50:48;;;;;;;25.17;14.20;;;7.50;99.90;;;;;;5047902;28;20098;-67
2021/05/27 03:53:15;;;;;;;22.88;13.80;;;7.50;99.90;;;;;;5047636;28;20091;-67
2021/05/27 03:55:41;;;;;;;20.80;13.35;;;7.50;99.90;;;;;;5045699;28;20082;-67
2021/05/27 04:00:50;;;;;;;24.00;13.40;;;7.90;99.90;;;;;;5048599;28;20229;-67
2021/05/27 04:03:16;;;;;;;22.60;13.65;;;8.00;99.90;;;;;;5047157;28;20049;-66
2021/05/27 04:08:27;;;;;;;24.23;12.70;;;8.10;99.90;;;;;;5047105;28;20097;-67
2021/05/27 04:10:54;;;;;;;17.77;11.18;;;8.20;99.90;;;;;;5045686;28;20048;-67
2021/05/27 04:13:21;;;;;;;20.73;11.70;;;8.30;99.90;;;;;;5046619;28;20872;-67
2021/05/27 04:15:48;;;;;;;24.40;11.90;;;8.20;99.90;;;;;;5047355;28;20513;-67
2021/05/27 04:18:16;;;;;;;17.52;10.68;;;8.30;99.90;;;;;;5047220;28;20048;-66
2021/05/27 04:20:45;;;;;;;20.88;11.40;;;8.40;99.90;;;;;;5047134;28;20070;-67
2021/05/27 04:23:14;;;;;;;17.00;10.88;;;8.40;99.90;;;;;;5046956;28;20056;-67
2021/05/27 04:25:41;;;;;;;17.40;11.23;;;8.50;99.90;;;;;;5047026;28;20081;-67
2021/05/27 04:28:09;;;;;;;19.05;10.18;;;8.40;99.90;;;;;;5046479;28;20055;-66
2021/05/27 04:33:20;;;;;;;22.35;11.00;;;8.60;99.90;;;;;;5046048;28;20504;-67
2021/05/27 04:35:46;;;;;;;20.33;10.48;;;8.60;99.90;;;;;;5047551;28;20076;-67
2021/05/27 04:38:14;;;;;;;15.23;10.77;;;8.60;99.90;;;;;;5046755;28;20080;-67
2021/05/27 04:40:43;;;;;;;18.52;11.45;;;8.60;99.90;;;;;;5046841;28;20105;-67
2021/05/27 04:43:10;;;;;;;16.80;10.48;;;8.60;99.90;;;;;;5045909;28;20059;-66
2021/05/27 04:45:38;;;;;;;15.73;10.27;;;8.70;99.90;;;;;;5044786;28;20110;-67
2021/05/27 04:48:09;;;;;;;19.65;10.63;;;8.70;99.90;;;;;;5048624;28;20048;-67
2021/05/27 04:50:37;;;;;;;17.40;10.52;;;8.70;99.90;;;;;;5047266;28;20056;-66
2021/05/27 04:53:04;;;;;;;18.00;10.35;;;8.80;99.90;;;;;;5044491;28;20162;-67
2021/05/27 04:55:31;;;;;;;13.18;9.32;;;8.90;99.90;;;;;;5044883;28;20055;-66
2021/05/27 04:57:58;;;;;;;14.65;10.07;;;8.90;99.90;;;;;;5046099;28;20055;-66
2021/05/27 05:00:26;;;;;;;19.88;9.60;;;9.10;99.90;;;;;;5045571;28;20870;-66
2021/05/27 05:02:54;;;;;;;17.65;9.23;;;9.20;99.90;;;;;;5046628;28;20048;-66
2021/05/27 05:05:21;;;;;;;15.63;9.18;;;9.20;99.90;;;;;;5046124;28;20126;-67
2021/05/27 05:07:49;;;;;;;12.88;8.60;;;9.40;99.90;;;;;;5045242;28;20044;-67
2021/05/27 05:10:17;;;;;;;14.57;8.38;;;9.30;99.90;;;;;;5047314;28;20056;-66
2021/05/27 05:12:47;;;;;;;14.55;8.23;;;9.30;99.90;;;;;;5044457;28;20049;-67
2021/05/27 05:15:18;;;;;;;16.70;9.40;;;9.20;99.90;;;;;;5045796;28;20052;-67
2021/05/27 05:17:48;;;;;;;14.75;9.02;;;9.30;99.90;;;;;;5045633;28;20054;-67
2021/05/27 05:20:16;;;;;;;16.27;8.30;;;9.40;99.90;;;;;;5047030;28;20044;-66
2021/05/27 05:22:43;;;;;;;12.05;8.00;;;9.40;99.90;;;;;;5044808;28;20066;-67
2021/05/27 05:25:10;;;;;;;13.75;7.95;;;9.40;99.90;;;;;;5042693;28;20067;-67
2021/05/27 05:27:37;;;;;;;12.70;8.32;;;9.40;99.90;;;;;;5040604;28;20489;-66
2021/05/27 05:30:05;;;;;;;11.15;7.07;;;9.50;99.90;;;;;;5046692;28;20048;-66
2021/05/27 05:32:31;;;;;;;12.75;7.13;;;9.40;99.90;;;;;;5047800;28;20139;-66
2021/05/27 05:34:59;;;;;;;14.60;7.03;;;9.30;99.90;;;;;;5047415;28;20530;-66
2021/05/27 05:37:27;;;;;;;12.50;6.88;;;9.40;99.90;;;;;;5043836;28;20056;-66
2021/05/27 05:39:54;;;;;;;9.82;6.45;;;9.40;99.90;;;;;;5045265;28;20565;-66
2021/05/27 05:42:20;;;;;;;15.45;6.53;;;9.40;99.90;;;;;;5045325;28;20053;-66
2021/05/27 05:44:47;;;;;;;13.02;6.60;;;9.20;99.90;;;;;;5045446;28;20053;-66
2021/05/27 05:47:14;;;;;;;10.13;6.28;;;9.40;99.90;;;;;;5046135;28;20086;-67
2021/05/27 05:49:40;;;;;;;11.00;6.50;;;9.50;99.90;;;;;;5044213;28;20055;-66
2021/05/27 05:52:07;;;;;;;12.68;6.88;;;9.40;99.90;;;;;;5043566;28;20049;-67
2021/05/27 05:54:34;;;;;;;12.65;6.85;;;9.40;99.90;;;;;;5047062;28;20175;-67
2021/05/27 05:57:01;;;;;;;14.88;7.32;;;9.40;99.90;;;;;;5043361;28;20048;-66
2021/05/27 05:59:28;;;;;;;14.27;6.60;;;9.40;99.90;;;;;;5042895;28;20081;-66
2021/05/27 06:01:55;;;;;;;12.52;7.00;;;9.40;99.90;;;;;;5047456;28;20655;-67
2021/05/27 06:04:22;;;;;;;9.65;6.03;;;9.40;99.90;;;;;;5044879;28;20060;-67
2021/05/27 06:06:51;;;;;;;13.20;6.65;;;9.40;99.90;;;;;;5043097;28;20052;-67
2021/05/27 06:09:17;;;;;;;12.63;5.63;;;9.40;99.90;;;;;;5045854;28;20080;-67
2021/05/27 06:11:45;;;;;;;14.90;6.25;;;9.40;99.90;;;;;;5045149;28;20056;-67
2021/05/27 06:14:12;;;;;;;11.48;5.88;;;9.40;99.90;;;;;;5043388;28;20778;-67
2021/05/27 06:16:38;;;;;;;13.63;5.47;;;9.50;99.90;;;;;;5043426;28;20056;-67
2021/05/27 06:19:05;;;;;;;12.05;5.57;;;9.50;99.90;;;;;;5043148;28;20052;-67
2021/05/27 06:21:32;;;;;;;13.88;6.28;;;9.50;99.90;;;;;;5046409;28;20048;-67
2021/05/27 06:23:59;;;;;;;12.18;6.18;;;9.60;99.90;;;;;;5043079;28;20048;-67
2021/05/27 06:26:26;;;;;;;11.45;5.97;;;9.60;99.90;;;;;;5043103;28;20253;-67
2021/05/27 06:28:54;;;;;;;12.35;6.55;;;9.70;99.90;;;;;;5045573;28;20067;-67
2021/05/27 06:31:20;;;;;;;9.93;6.28;;;9.80;99.90;;;;;;5045222;28;20063;-66
2021/05/27 06:33:47;;;;;;;14.10;6.45;;;9.80;99.90;;;;;;5049825;28;21725;-67
2021/05/27 06:36:13;;;;;;;10.05;5.82;;;9.90;99.90;;;;;;5048097;28;20052;-66
2021/05/27 06:38:40;;;;;;;9.25;5.57;;;9.90;99.90;;;;;;5044140;28;20047;-66
2021/05/27 06:41:07;;;;;;;12.40;5.47;;;9.90;99.90;;;;;;5045692;28;20052;-66
2021/05/27 06:43:34;;;;;;;10.02;5.35;;;9.90;99.90;;;;;;5046892;28;20083;-67
2021/05/27 06:46:01;;;;;;;10.20;5.75;;;9.90;99.90;;;;;;5045134;28;20462;-66
2021/05/27 06:48:28;;;;;;;10.07;5.47;;;10.00;99.90;;;;;;5046033;28;20098;-67
2021/05/27 06:50:58;;;;;;;12.40;5.30;;;10.10;99.90;;;;;;5047191;28;20489;-67
2021/05/27 06:53:24;;;;;;;8.32;5.00;;;10.30;99.90;;;;;;5047078;28;20060;-67
2021/05/27 06:55:51;;;;;;;9.95;5.05;;;10.40;99.90;;;;;;5047194;28;20064;-67
2021/05/27 06:58:18;;;;;;;11.80;5.05;;;10.50;99.90;;;;;;5042319;28;20052;-67
2021/05/27 07:00:44;;;;;;;12.13;5.00;;;10.50;99.90;;;;;;5047029;28;20136;-67
2021/05/27 07:03:16;;;;;;;9.60;4.80;;;10.50;99.90;;;;;;5048833;28;20044;-67
2021/05/27 07:05:43;;;;;;;9.30;4.78;;;10.60;99.90;;;;;;5059129;28;20131;-67
2021/05/27 07:08:09;;;;;;;7.28;4.05;;;10.70;99.90;;;;;;5057038;28;20485;-67
2021/05/27 07:10:36;;;;;;;11.15;4.28;;;10.80;99.90;;;;;;5056090;28;20048;-68
2021/05/27 07:13:07;;;;;;;7.10;3.78;;;11.10;99.90;;;;;;5056640;28;20052;-68
2021/05/27 07:15:34;;;;;;;10.45;4.13;;;11.50;99.90;;;;;;5036493;28;20142;-71
2021/05/27 07:18:01;;;;;;;10.32;4.00;;;11.60;99.90;;;;;;5043725;28;20051;-71
2021/05/27 07:20:29;;;;;;;9.05;3.75;;;11.60;99.90;;;;;;5042999;28;21443;-73
2021/05/27 07:22:56;;;;;;;7.28;4.28;;;11.50;99.90;;;;;;5045446;28;20067;-70
2021/05/27 07:25:25;;;;;;;6.80;4.07;;;11.40;99.90;;;;;;5044699;28;20052;-70
2021/05/27 07:27:52;;;;;;;8.80;3.63;;;11.50;99.90;;;;;;5044467;28;20059;-73
2021/05/27 07:30:23;;;;;;;8.48;3.60;;;11.50;99.90;;;;;;5042451;28;20059;-72
2021/05/27 07:32:49;;;;;;;6.07;3.70;;;11.60;99.90;;;;;;5043798;28;20044;-72
2021/05/27 07:35:16;;;;;;;7.57;3.47;;;11.40;99.90;;;;;;5042337;28;20048;-70
2021/05/27 07:37:44;;;;;;;12.93;3.50;;;11.50;99.90;;;;;;5048026;28;20040;-71
2021/05/27 07:40:11;;;;;;;9.05;3.22;;;11.50;99.90;;;;;;5057263;28;20075;-69
2021/05/27 07:42:38;;;;;;;8.30;3.30;;;11.50;99.90;;;;;;5045121;28;20040;-69
2021/05/27 07:45:07;;;;;;;5.70;2.95;;;11.60;99.90;;;;;;5041873;28;21704;-70
2021/05/27 07:47:34;;;;;;;8.20;3.40;;;11.60;99.90;;;;;;5042755;28;20727;-70
2021/05/27 07:50:01;;;;;;;10.27;3.35;;;11.60;99.90;;;;;;5045676;28;20101;-68
2021/05/27 07:52:27;;;;;;;8.23;2.97;;;11.70;99.90;;;;;;5044485;28;20052;-68
2021/05/27 07:54:55;;;;;;;10.43;4.13;;;11.70;99.90;;;;;;5045598;28;20608;-75
2021/05/27 07:57:22;;;;;;;7.57;3.05;;;11.70;99.90;;;;;;5048276;28;20091;-71
2021/05/27 07:59:49;;;;;;;7.28;3.22;;;11.80;99.90;;;;;;5048262;28;20056;-71
2021/05/27 08:02:15;;;;;;;9.23;3.20;;;11.70;99.90;;;;;;5047287;28;20044;-71
2021/05/27 08:04:42;;;;;;;10.40;3.70;;;11.80;99.90;;;;;;5049482;28;20057;-71
2021/05/27 08:07:09;;;;;;;6.03;3.03;;;11.80;99.90;;;;;;5054420;28;20087;-72
2021/05/27 08:09:36;;;;;;;7.95;2.97;;;11.70;99.90;;;;;;5054323;28;20044;-76
2021/05/27 08:12:05;;;;;;;8.45;3.20;;;11.70;99.90;;;;;;5052209;28;20079;-71
2021/05/27 08:14:32;;;;;;;8.90;2.72;;;11.90;99.90;;;;;;5055969;28;20048;-72
2021/05/27 08:16:58;;;;;;;6.57;3.13;;;11.70;99.90;;;;;;5050578;28;20082;-71
2021/05/27 08:19:25;;;;;;;7.35;3.20;;;11.70;99.90;;;;;;5048930;28;20044;-71
2021/05/27 08:21:52;;;;;;;7.30;2.90;;;11.80;99.90;;;;;;5053038;28;20106;-71
2021/05/27 08:24:21;;;;;;;7.35;3.08;;;11.70;99.90;;;;;;5054200;28;20056;-71
2021/05/27 08:26:48;;;;;;;7.65;3.10;;;11.70;99.90;;;;;;5051562;28;20455;-69
2021/05/27 08:29:15;;;;;;;9.65;3.30;;;11.80;99.90;;;;;;5054046;28;20105;-70
2021/05/27 08:31:42;;;;;;;7.22;3.88;;;11.80;99.90;;;;;;5053376;28;20047;-70
2021/05/27 08:34:10;;;;;;;10.68;3.72;;;11.70;99.90;;;;;;5054293;28;20056;-70
2021/05/27 08:36:38;;;;;;;12.10;3.40;;;11.80;99.90;;;;;;5056605;28;20056;-70
2021/05/27 08:39:06;;;;;;;6.07;3.33;;;11.70;99.90;;;;;;5052383;28;20071;-70
2021/05/27 08:41:33;;;;;;;10.75;4.32;;;11.60;99.90;;;;;;5054754;28;20056;-65
2021/05/27 08:44:02;;;;;;;8.85;3.38;;;11.60;99.90;;;;;;5050310;28;20048;-67
2021/05/27 08:46:30;;;;;;;5.80;2.88;;;11.50;99.90;;;;;;5048248;28;20156;-66
2021/05/27 08:48:56;;;;;;;9.00;3.05;;;11.50;99.90;;;;;;5045493;28;20053;-67
2021/05/27 08:51:23;;;;;;;6.57;3.28;;;11.50;99.90;;;;;;5050503;28;20499;-66
2021/05/27 08:53:50;;;;;;;8.90;3.28;;;11.40;99.90;;;;;;5052400;28;20055;-66
2021/05/27 08:56:16;;;;;;;8.82;2.92;;;11.40;99.90;;;;;;5049272;28;20497;-66
2021/05/27 08:58:43;;;;;;;6.15;2.83;;;11.30;99.90;;;;;;5048215;28;20052;-66
2021/05/27 09:01:10;;;;;;;6.57;3.40;;;11.40;99.90;;;;;;5049650;28;20052;-66
2021/05/27 09:03:41;;;;;;;7.82;3.05;;;11.40;99.90;;;;;;5047942;28;20055;-67
2021/05/27 09:06:09;;;;;;;7.15;3.20;;;11.30;99.90;;;;;;5049246;28;20048;-67
2021/05/27 09:08:39;;;;;;;8.18;3.13;;;11.20;99.90;;;;;;5045320;28;20113;-72
2021/05/27 09:11:07;;;;;;;8.52;3.70;;;11.10;99.90;;;;;;5046546;28;20045;-73
2021/05/27 09:13:35;;;;;;;12.00;3.85;;;11.10;99.90;;;;;;5043378;28;20090;-73
2021/05/27 09:16:09;;;;;;;12.27;3.47;;;11.10;99.90;;;;;;5044514;28;20048;-71
2021/05/27 09:18:37;;;;;;;9.45;3.55;;;11.10;99.90;;;;;;5036738;28;20043;-71
2021/05/27 09:21:07;;;;;;;7.00;3.28;;;11.10;99.90;;;;;;5048620;28;20061;-72
2021/05/27 09:23:34;;;;;;;6.68;3.33;;;11.10;99.90;;;;;;5049585;28;20060;-71
2021/05/27 09:26:10;;;;;;;10.63;3.50;;;11.10;99.90;;;;;;5049863;28;20056;-71
2021/05/27 09:28:37;;;;;;;8.47;3.90;;;11.00;99.90;;;;;;5051614;28;20067;-65
2021/05/27 09:31:06;;;;;;;7.55;4.15;;;11.00;99.90;;;;;;5051736;28;20655;-66
2021/05/27 09:33:34;;;;;;;9.40;3.60;;;11.00;99.90;;;;;;5052319;28;20096;-65
2021/05/27 09:36:02;;;;;;;8.68;3.85;;;10.80;99.90;;;;;;5055482;28;20094;-65
2021/05/27 09:38:31;;;;;;;7.07;3.65;;;10.80;99.90;;;;;;5055429;28;20067;-65
2021/05/27 09:40:58;;;;;;;14.15;4.00;;;10.80;99.90;;;;;;5055651;28;21324;-65
2021/05/27 09:43:26;;;;;;;6.45;3.60;;;10.80;99.90;;;;;;5055366;28;20071;-66
2021/05/27 09:46:04;;;;;;;8.18;3.85;;;10.90;99.90;;;;;;5054966;28;20091;-66
2021/05/27 09:48:31;;;;;;;9.27;3.88;;;10.80;99.90;;;;;;5051509;28;20052;-65
2021/05/27 09:51:00;;;;;;;10.45;3.80;;;10.90;99.90;;;;;;5053403;28;20048;-66
2021/05/27 09:53:27;;;;;;;8.60;3.90;;;10.90;99.90;;;;;;5054798;28;20056;-66
2021/05/27 09:55:55;;;;;;;8.82;3.50;;;11.00;99.90;;;;;;5055080;28;20144;-66
2021/05/27 09:58:22;;;;;;;9.43;4.13;;;11.10;99.90;;;;;;5052574;28;20483;-66
2021/05/27 10:00:50;;;;;;;6.75;3.67;;;11.30;99.90;;;;;;5052318;28;20055;-66
2021/05/27 10:03:39;;;;;;;9.68;3.65;;;11.50;99.90;;;;;;5050669;28;20052;-66
2021/05/27 10:06:08;;;;;;;5.75;3.15;;;11.60;99.90;;;;;;5053554;28;20205;-66
2021/05/27 10:08:53;;;;;;;5.65;3.20;;;11.70;99.90;;;;;;5050179;28;20088;-66
2021/05/27 10:11:21;;;;;;;8.93;3.65;;;11.80;99.90;;;;;;5049349;28;20060;-66
2021/05/27 10:13:48;;;;;;;9.43;3.83;;;11.80;99.90;;;;;;5049504;28;20048;-66
2021/05/27 10:16:16;;;;;;;9.75;3.95;;;12.00;99.90;;;;;;5050882;28;20055;-66
2021/05/27 10:18:44;;;;;;;6.65;3.35;;;12.20;99.90;;;;;;5047256;28;20052;-66
2021/05/27 10:21:12;;;;;;;6.75;3.72;;;12.20;99.90;;;;;;5048189;28;20527;-66
2021/05/27 10:23:40;;;;;;;7.07;3.10;;;12.40;99.90;;;;;;5052060;28;21170;-66
2021/05/27 10:26:07;;;;;;;8.48;3.08;;;12.50;99.90;;;;;;5050332;28;20151;-66
2021/05/27 10:28:35;;;;;;;8.15;3.10;;;12.70;99.90;;;;;;5050240;28;20052;-67
2021/05/27 10:31:02;;;;;;;8.20;2.80;;;12.60;99.90;;;;;;5051475;28;20777;-67
2021/05/27 10:33:37;;;;;;;7.72;2.95;;;12.40;99.90;;;;;;5049004;28;20561;-66
2021/05/27 10:36:05;;;;;;;6.05;2.67;;;12.30;99.90;;;;;;5054474;28;20131;-67
2021/05/27 10:38:50;;;;;;;7.55;3.00;;;12.30;99.90;;;;;;5054352;28;20048;-66
2021/05/27 10:41:20;;;;;;;5.50;2.58;;;12.50;99.90;;;;;;5051811;28;20052;-66
2021/05/27 10:44:16;;;;;;;6.65;2.60;;;12.80;99.90;;;;;;5048699;28;20048;-66
2021/05/27 10:47:16;;;;;;;5.70;2.85;;;12.80;99.90;;;;;;5051459;28;20055;-66
2021/05/27 10:49:58;;;;;;;5.15;2.63;;;12.80;99.90;;;;;;5051333;28;20653;-66
2021/05/27 10:52:44;;;;;;;9.43;3.08;;;12.80;99.90;;;;;;5052600;28;20050;-67
2021/05/27 10:55:55;;;;;;;8.55;2.88;;;12.80;99.90;;;;;;5056698;28;20048;-66
2021/05/27 10:59:11;;;;;;;7.70;2.90;;;12.70;99.90;;;;;;5056715;28;20113;-66
2021/05/27 11:02:08;;;;;;;6.03;2.40;;;12.80;99.90;;;;;;5053230;28;20497;-66
2021/05/27 11:04:43;;;;;;;5.45;2.50;;;12.70;99.90;;;;;;5055986;28;20059;-67
2021/05/27 11:07:24;;;;;;;6.90;2.60;;;12.70;99.90;;;;;;5050064;28;20645;-66
2021/05/27 11:09:55;;;;;;;6.70;3.17;;;12.80;99.90;;;;;;5058559;28;20055;-66
2021/05/27 11:12:26;;;;;;;5.20;2.65;;;12.70;99.90;;;;;;5052469;28;20109;-66
2021/05/27 11:15:17;;;;;;;6.72;2.45;;;12.80;99.90;;;;;;5054911;28;20049;-66
2021/05/27 11:18:07;;;;;;;6.43;2.65;;;12.80;99.90;;;;;;5039142;28;20056;-66
2021/05/27 11:20:35;;;;;;;8.60;2.80;;;12.90;99.90;;;;;;5055821;28;20168;-67
2021/05/27 11:23:21;;;;;;;6.13;2.38;;;13.00;99.90;;;;;;5050989;28;20109;-67
2021/05/27 11:25:48;;;;;;;7.47;2.60;;;13.10;99.90;;;;;;5051331;28;20056;-67
2021/05/27 11:28:27;;;;;;;7.30;2.78;;;13.50;99.90;;;;;;5051470;28;20053;-67
2021/05/27 11:30:54;;;;;;;6.75;2.42;;;14.20;99.90;;;;;;5051364;28;20055;-67
2021/05/27 11:33:40;;;;;;;5.63;2.50;;;14.80;99.90;;;;;;5046552;28;20048;-67
2021/05/27 11:36:26;;;;;;;6.75;2.55;;;15.10;99.90;;;;;;5048649;28;20052;-67
2021/05/27 11:38:54;;;;;;;7.60;2.35;;;15.50;99.90;;;;;;5049417;28;20056;-67
2021/05/27 11:41:20;;;;;;;5.30;2.42;;;15.60;99.90;;;;;;5053311;28;20052;-67
2021/05/27 11:43:54;;;;;;;6.55;2.70;;;15.90;99.90;;;;;;5055995;28;20531;-67
2021/05/27 11:46:22;;;;;;;6.43;3.53;;;15.70;99.90;;;;;;5056200;28;20143;-67
2021/05/27 11:48:59;;;;;;;7.22;2.70;;;15.30;99.90;;;;;;5055061;28;20159;-68
2021/05/27 11:51:33;;;;;;;4.75;2.50;;;15.30;99.90;;;;;;5053381;28;20060;-68
2021/05/27 11:54:01;;;;;;;6.03;2.58;;;15.30;99.90;;;;;;5044962;28;20056;-68
2021/05/27 11:56:43;;;;;;;4.50;2.10;;;16.00;99.90;;;;;;5055395;28;20049;-68
2021/05/27 11:59:13;;;;;;;5.78;2.20;;;16.10;99.90;;;;;;5051168;28;20056;-68
2021/05/27 12:01:41;;;;;;;7.57;2.40;;;15.90;99.90;;;;;;5052612;28;20059;-65
2021/05/27 12:04:13;;;;;;;6.78;3.30;;;16.00;99.90;;;;;;5056596;28;20055;-66
2021/05/27 12:06:58;;;;;;;4.70;2.10;;;16.70;99.90;;;;;;5055294;28;20136;-66
2021/05/27 12:09:28;;;;;;;4.95;2.65;;;17.20;99.90;;;;;;5044876;28;20056;-66
2021/05/27 12:11:55;;;;;;;5.20;2.58;;;17.10;99.90;;;;;;5055182;28;20413;-66
2021/05/27 12:14:22;;;;;;;5.50;2.05;;;17.00;99.90;;;;;;5057871;28;20282;-67
2021/05/27 12:16:49;;;;;;;5.15;2.42;;;16.70;99.90;;;;;;5050238;28;20496;-67
2021/05/27 12:19:17;;;;;;;5.22;2.60;;;16.30;99.90;;;;;;5051462;28;20048;-66
2021/05/27 12:21:53;;;;;;;6.40;2.97;;;15.80;99.90;;;;;;5054053;28;20053;-66
2021/05/27 12:24:24;;;;;;;5.90;2.47;;;15.90;99.90;;;;;;5053673;28;20052;-66
2021/05/27 12:26:51;;;;;;;7.22;3.08;;;16.00;99.90;;;;;;5055580;28;20054;-66
2021/05/27 12:29:18;;;;;;;4.18;2.33;;;15.90;99.90;;;;;;5049920;28;20048;-66
2021/05/27 12:31:45;;;;;;;6.00;3.00;;;15.70;99.90;;;;;;5054304;28;20053;-66
2021/05/27 12:34:14;;;;;;;9.00;3.60;;;15.10;99.90;;;;;;5057882;28;20091;-66
2021/05/27 12:36:58;;;;;;;9.68;3.72;;;15.10;99.90;;;;;;5053150;28;20049;-66
2021/05/27 12:39:34;;;;;;;8.98;3.42;;;15.00;99.90;;;;;;5054895;28;20057;-66
2021/05/27 12:42:02;;;;;;;7.30;2.95;;;15.00;99.90;;;;;;5059102;28;20055;-66
2021/05/27 12:44:41;;;;;;;7.63;3.28;;;15.40;99.90;;;;;;5054377;28;20048;-66
2021/05/27 12:47:19;;;;;;;7.35;3.03;;;15.50;99.90;;;;;;5055872;28;20504;-66
2021/05/27 12:49:47;;;;;;;7.57;2.80;;;15.50;99.90;;;;;;5056747;28;20055;-66
2021/05/27 12:52:36;;;;;;;6.15;2.78;;;15.50;99.90;;;;;;5047539;28;20048;-66
2021/05/27 12:55:04;;;;;;;8.30;3.30;;;15.60;99.90;;;;;;5049741;28;20455;-66
2021/05/27 12:57:30;;;;;;;13.05;3.17;;;15.70;99.90;;;;;;5043371;28;20147;-67
2021/05/27 12:59:58;;;;;;;5.50;2.70;;;15.90;99.90;;;;;;5049665;28;20040;-66
2021/05/27 13:02:25;;;;;;;6.18;3.10;;;16.00;99.90;;;;;;5046424;28;20045;-66